Terminal Aerodrome Forecast
Issued by NWS

Home | Current Version | Previous Version | Text Only | Print | Product List | Glossary On
Versions: 1 2 3 4 5 6 7 8 9 10 11 12 13 14 15 16 17 18 19 20 21 22 23 24 25 26 27 28 29 30
554
FTUS41 KOKX 240520
TAFSWF
TAF
KSWF 240520Z 2406/2512 00000KT P6SM FEW250
     FM241600 16006KT P6SM BKN250
     FM241800 17010KT P6SM BKN250
     FM242300 14006KT P6SM OVC035
     FM250000 VRB05KT 3SM RA OVC015
     FM250700 10007KT 3SM RA OVC006
      AMD NOT SKED=

USA.gov is the U.S. government's official web portal to all federal, state and local government web resources and services.